createdAt,value
2022-09-29T00:02:10.211Z,22.20
2022-09-29T00:04:36.999Z,21.00
2022-09-29T00:07:04.183Z,20.40
2022-09-29T00:09:31.348Z,19.20
2022-09-29T00:11:58.114Z,19.70
2022-09-29T00:14:25.289Z,17.70
2022-09-29T00:16:53.210Z,19.30
2022-09-29T00:19:20.075Z,22.20
2022-09-29T00:21:46.905Z,19.00
2022-09-29T00:24:13.708Z,19.20
2022-09-29T00:26:40.464Z,15.50
2022-09-29T00:29:07.359Z,15.10
2022-09-29T00:31:34.490Z,14.90
2022-09-29T00:34:01.765Z,16.10
2022-09-29T00:36:31.746Z,16.90
2022-09-29T00:38:59.668Z,13.50
2022-09-29T00:41:29.556Z,14.20
2022-09-29T00:43:58.079Z,11.30
2022-09-29T00:46:29.091Z,12.30
2022-09-29T00:48:59.930Z,10.70
2022-09-29T00:51:27.906Z,14.20
2022-09-29T00:53:55.432Z,13.30
2022-09-29T00:56:22.524Z,12.10
2022-09-29T00:58:58.914Z,12.20
2022-09-29T01:01:28.718Z,11.40
2022-09-29T01:04:01.321Z,15.80
2022-09-29T01:06:37.467Z,14.20
2022-09-29T01:09:07.376Z,13.70
2022-09-29T01:11:34.673Z,13.60
2022-09-29T01:14:06.102Z,14.20
2022-09-29T01:16:34.896Z,15.80
2022-09-29T01:19:07.403Z,19.30
2022-09-29T01:21:38.940Z,16.80
2022-09-29T01:24:18.752Z,15.60
2022-09-29T01:27:02.944Z,13.30
2022-09-29T01:30:01.139Z,14.10
2022-09-29T01:32:43.875Z,14.70
2022-09-29T01:35:32.924Z,11.50
2022-09-29T01:38:01.426Z,13.40
2022-09-29T01:40:33.168Z,13.30
2022-09-29T01:43:07.922Z,12.50
2022-09-29T01:45:40.791Z,12.10
2022-09-29T01:48:12.484Z,13.30
2022-09-29T01:50:45.013Z,14.40
2022-09-29T01:53:17.991Z,10.80
2022-09-29T01:55:52.559Z,11.00
2022-09-29T01:58:26.386Z,11.90
2022-09-29T02:00:58.714Z,13.00
2022-09-29T02:03:29.976Z,15.30
2022-09-29T02:06:02.007Z,10.90
2022-09-29T02:08:34.424Z,12.30
2022-09-29T02:11:07.674Z,11.60
2022-09-29T02:13:44.742Z,13.50
2022-09-29T02:16:16.481Z,10.30
2022-09-29T02:18:58.274Z,10.40
2022-09-29T02:21:27.361Z,18.10
2022-09-29T02:23:55.433Z,14.50
2022-09-29T02:26:25.874Z,12.90
2022-09-29T02:28:53.276Z,10.90
2022-09-29T02:31:20.161Z,10.70
2022-09-29T02:33:46.939Z,12.60
2022-09-29T02:36:37.013Z,11.70
2022-09-29T02:39:27.550Z,10.90
2022-09-29T02:42:02.189Z,12.30
2022-09-29T02:44:46.134Z,11.00
2022-09-29T02:47:35.874Z,13.60
2022-09-29T02:50:22.145Z,12.00
2022-09-29T02:53:17.136Z,10.40
2022-09-29T02:55:57.857Z,9.40
2022-09-29T02:58:32.998Z,9.80
2022-09-29T03:01:00.799Z,11.30
2022-09-29T03:03:27.771Z,10.70
2022-09-29T03:05:54.830Z,10.40
2022-09-29T03:08:21.642Z,14.00
2022-09-29T03:10:48.483Z,13.20
2022-09-29T03:13:15.350Z,14.40
2022-09-29T03:15:42.150Z,15.10
2022-09-29T03:18:10.291Z,11.40
2022-09-29T03:20:37.364Z,12.60
2022-09-29T03:23:04.198Z,14.40
2022-09-29T03:25:31.093Z,11.10
2022-09-29T03:27:57.869Z,13.30
2022-09-29T03:30:25.612Z,12.90
2022-09-29T03:32:52.413Z,12.70
2022-09-29T03:35:19.361Z,12.00
2022-09-29T03:37:46.379Z,10.60
2022-09-29T03:40:13.200Z,10.80
2022-09-29T03:42:40.134Z,13.40
2022-09-29T03:45:07.622Z,14.00
2022-09-29T03:47:34.492Z,12.50
2022-09-29T03:50:01.292Z,12.00
2022-09-29T03:52:28.025Z,12.00
2022-09-29T03:54:54.735Z,13.80
2022-09-29T03:57:21.534Z,10.60
2022-09-29T03:59:48.220Z,14.40
2022-09-29T04:02:18.559Z,12.10
2022-09-29T04:04:45.909Z,13.30
2022-09-29T04:07:12.698Z,14.40
2022-09-29T04:09:39.569Z,12.60
2022-09-29T04:12:06.569Z,12.70
2022-09-29T04:14:33.559Z,11.20
2022-09-29T04:17:00.462Z,12.20
2022-09-29T04:19:27.301Z,12.70
2022-09-29T04:21:54.065Z,12.30
2022-09-29T04:24:20.920Z,11.20
2022-09-29T04:26:47.684Z,11.80
2022-09-29T04:29:14.760Z,13.40
2022-09-29T04:31:41.566Z,10.80
2022-09-29T04:34:08.426Z,14.50
2022-09-29T04:36:35.164Z,11.90
2022-09-29T04:39:01.968Z,10.60
2022-09-29T04:41:29.060Z,10.70
2022-09-29T04:43:55.851Z,10.80
2022-09-29T04:46:22.833Z,11.50
2022-09-29T04:48:49.628Z,9.90
2022-09-29T04:51:16.494Z,9.90
2022-09-29T04:53:43.582Z,12.40
2022-09-29T04:56:11.486Z,10.60
2022-09-29T04:58:38.362Z,10.00
2022-09-29T05:01:07.880Z,13.50
2022-09-29T05:03:34.910Z,11.70
2022-09-29T05:06:01.956Z,9.70
2022-09-29T05:08:28.752Z,10.40
2022-09-29T05:10:55.577Z,11.80
2022-09-29T05:13:22.521Z,8.00
2022-09-29T05:15:49.331Z,11.70
2022-09-29T05:18:16.059Z,10.10
2022-09-29T05:20:54.758Z,13.20
2022-09-29T05:23:29.588Z,10.50
2022-09-29T05:26:01.873Z,10.10
2022-09-29T05:28:28.845Z,7.60
2022-09-29T05:30:56.307Z,10.30
2022-09-29T05:33:23.518Z,8.30
2022-09-29T05:35:50.281Z,11.60
2022-09-29T05:38:17.046Z,10.80
2022-09-29T05:40:43.888Z,10.00
2022-09-29T05:43:10.781Z,9.30
2022-09-29T05:45:37.741Z,13.20
2022-09-29T05:48:04.882Z,11.00
2022-09-29T05:50:33.229Z,15.30
2022-09-29T05:53:04.056Z,20.30
2022-09-29T05:55:30.835Z,20.50
2022-09-29T05:57:57.639Z,16.90
2022-09-29T06:00:24.480Z,18.90
2022-09-29T06:02:51.293Z,16.90
2022-09-29T06:05:18.041Z,17.40
2022-09-29T06:07:44.826Z,18.50
2022-09-29T06:10:11.570Z,17.50
2022-09-29T06:12:39.076Z,14.90
2022-09-29T06:15:06.899Z,16.40
2022-09-29T06:17:34.778Z,15.50
2022-09-29T06:20:01.860Z,12.40
2022-09-29T06:22:28.738Z,11.10
2022-09-29T06:24:55.611Z,10.60
2022-09-29T06:27:22.463Z,10.40
2022-09-29T06:29:49.334Z,13.30
2022-09-29T06:32:16.477Z,11.20
2022-09-29T06:34:58.923Z,13.80
2022-09-29T06:37:42.222Z,13.40
2022-09-29T06:40:11.338Z,13.20
2022-09-29T06:42:38.794Z,13.00
2022-09-29T06:45:06.205Z,13.10
2022-09-29T06:47:32.954Z,12.10
2022-09-29T06:50:07.419Z,13.90
2022-09-29T06:52:46.229Z,13.50
2022-09-29T06:55:16.397Z,14.00
2022-09-29T06:57:45.868Z,10.30
2022-09-29T07:00:12.883Z,11.00
2022-09-29T07:02:39.646Z,16.00
2022-09-29T07:05:06.663Z,13.40
2022-09-29T07:07:33.415Z,14.70
2022-09-29T07:10:00.232Z,13.40
2022-09-29T07:12:27.066Z,15.80
2022-09-29T07:14:54.009Z,19.20
2022-09-29T07:17:20.741Z,23.30
2022-09-29T07:19:47.481Z,23.70
2022-09-29T07:22:14.331Z,28.20
2022-09-29T07:24:43.469Z,24.50
2022-09-29T07:27:10.368Z,22.60
2022-09-29T07:29:37.318Z,23.80
2022-09-29T07:32:04.192Z,15.80
2022-09-29T07:34:31.146Z,12.60
2022-09-29T07:36:58.020Z,12.30
2022-09-29T07:39:24.856Z,11.40
2022-09-29T07:41:52.114Z,12.80
2022-09-29T07:44:19.108Z,10.60
2022-09-29T07:46:45.834Z,11.60
2022-09-29T07:49:13.109Z,9.20
2022-09-29T07:51:40.163Z,9.90
2022-09-29T07:54:07.062Z,13.00
2022-09-29T07:56:34.580Z,7.10
2022-09-29T07:59:03.004Z,6.30
2022-09-29T08:01:30.377Z,6.60
2022-09-29T08:03:57.687Z,7.00
2022-09-29T08:06:26.997Z,7.70
2022-09-29T08:09:03.544Z,8.10
2022-09-29T08:11:32.283Z,7.50
2022-09-29T08:14:01.100Z,5.20
2022-09-29T08:16:28.409Z,5.70
2022-09-29T08:18:55.249Z,4.40
2022-09-29T08:21:22.899Z,10.40
2022-09-29T08:23:49.716Z,9.60
2022-09-29T08:26:21.101Z,8.80
2022-09-29T08:29:02.361Z,8.20
2022-09-29T08:31:31.273Z,7.20
2022-09-29T08:33:59.495Z,9.50
2022-09-29T08:36:27.013Z,9.00
2022-09-29T08:38:56.501Z,10.40
2022-09-29T08:41:39.187Z,11.60
2022-09-29T08:44:31.556Z,10.90
2022-09-29T08:47:10.350Z,9.50
2022-09-29T08:49:45.199Z,8.10
2022-09-29T08:52:17.506Z,10.40
2022-09-29T08:54:49.475Z,10.20
2022-09-29T08:57:19.749Z,8.40
2022-09-29T08:59:54.887Z,7.60
2022-09-29T09:02:30.680Z,12.60
2022-09-29T09:05:11.191Z,12.10
2022-09-29T09:08:04.149Z,11.10
2022-09-29T09:10:47.379Z,5.70
2022-09-29T09:13:40.354Z,9.30
2022-09-29T09:16:26.685Z,8.30
2022-09-29T09:19:05.194Z,10.00
2022-09-29T09:21:42.877Z,11.30
2022-09-29T09:24:25.762Z,13.40
2022-09-29T09:26:53.287Z,12.30
2022-09-29T09:29:38.267Z,14.30
2022-09-29T09:32:09.388Z,13.40
2022-09-29T09:34:52.083Z,13.80
2022-09-29T09:37:32.812Z,7.60
2022-09-29T09:40:06.993Z,9.70
2022-09-29T09:42:39.381Z,9.70
2022-09-29T09:45:07.278Z,9.90
2022-09-29T09:47:40.690Z,6.60
2022-09-29T09:50:18.399Z,6.70
2022-09-29T09:52:49.353Z,5.10
2022-09-29T09:55:20.076Z,7.90
2022-09-29T09:58:09.103Z,5.90
2022-09-29T10:00:45.107Z,8.80
2022-09-29T10:03:14.150Z,9.20
2022-09-29T10:05:45.781Z,5.40
2022-09-29T10:08:23.938Z,4.00
2022-09-29T10:10:58.147Z,4.50
2022-09-29T10:13:28.198Z,5.00
2022-09-29T10:16:15.467Z,6.00
2022-09-29T10:18:46.570Z,12.20
2022-09-29T10:21:36.282Z,8.50
2022-09-29T10:24:07.487Z,7.60
2022-09-29T10:26:40.413Z,3.50
2022-09-29T10:29:24.034Z,4.70
2022-09-29T10:32:10.475Z,4.90
2022-09-29T10:34:41.228Z,3.10
2022-09-29T10:37:21.926Z,6.10
2022-09-29T10:39:48.813Z,5.80
2022-09-29T10:42:25.524Z,2.70
2022-09-29T10:45:01.270Z,4.80
2022-09-29T10:47:28.363Z,5.50
2022-09-29T10:50:14.817Z,5.30
2022-09-29T10:52:47.838Z,8.60
2022-09-29T10:55:20.093Z,5.00
2022-09-29T10:57:48.851Z,3.80
2022-09-29T11:00:36.400Z,5.30
2022-09-29T11:03:19.929Z,3.60
2022-09-29T11:06:03.936Z,4.70
2022-09-29T11:08:31.743Z,2.90
2022-09-29T11:11:07.639Z,6.00
2022-09-29T11:13:37.540Z,2.80
2022-09-29T11:16:13.897Z,2.90
2022-09-29T11:18:43.894Z,3.10
2022-09-29T11:21:45.032Z,3.60
2022-09-29T11:24:35.614Z,3.60
2022-09-29T11:27:12.078Z,3.80
2022-09-29T11:29:50.486Z,3.30
2022-09-29T11:32:20.302Z,3.80
2022-09-29T11:35:06.258Z,2.80
2022-09-29T11:37:58.004Z,3.50
2022-09-29T11:40:48.840Z,2.00
2022-09-29T11:43:36.153Z,4.00
2022-09-29T11:46:20.471Z,4.50
2022-09-29T11:49:19.335Z,3.80
2022-09-29T11:52:17.719Z,4.00
2022-09-29T11:55:08.208Z,3.90
2022-09-29T11:57:52.055Z,4.60
2022-09-29T12:00:21.305Z,4.30
2022-09-29T12:03:11.854Z,3.80
2022-09-29T12:05:49.898Z,3.30
2022-09-29T12:08:41.177Z,3.50
2022-09-29T12:11:37.688Z,4.30
2022-09-29T12:14:11.684Z,4.20
2022-09-29T12:16:44.871Z,1.60
2022-09-29T12:19:18.003Z,2.50
2022-09-29T12:21:51.258Z,3.60
2022-09-29T12:24:25.773Z,4.60
2022-09-29T12:26:53.564Z,3.60
2022-09-29T12:29:39.241Z,1.80
2022-09-29T12:32:21.775Z,4.20
2022-09-29T12:34:56.164Z,2.00
2022-09-29T12:37:33.323Z,2.90
2022-09-29T12:40:12.974Z,3.40
2022-09-29T12:42:56.958Z,2.30
2022-09-29T12:48:18.733Z,3.20
2022-09-29T12:50:57.880Z,3.20
2022-09-29T12:53:34.903Z,2.40
2022-09-29T12:56:10.543Z,2.80
2022-09-29T12:58:56.512Z,3.10
2022-09-29T13:01:27.291Z,5.00
2022-09-29T13:04:25.924Z,2.20
2022-09-29T13:07:01.994Z,4.40
2022-09-29T13:09:33.881Z,2.50
2022-09-29T13:12:17.211Z,2.30
2022-09-29T13:14:54.298Z,3.10
2022-09-29T13:20:23.739Z,1.70
2022-09-29T13:23:18.207Z,5.40
2022-09-29T13:26:10.862Z,4.90
2022-09-29T13:28:43.167Z,4.10
2022-09-29T13:31:16.918Z,2.80
2022-09-29T13:33:49.189Z,3.10
2022-09-29T13:36:28.240Z,4.30
2022-09-29T13:38:58.659Z,2.90
2022-09-29T13:41:30.122Z,2.70
2022-09-29T13:43:58.543Z,5.00
2022-09-29T13:46:30.305Z,2.00
2022-09-29T13:49:04.833Z,2.10
2022-09-29T13:51:58.162Z,2.10
2022-09-29T13:54:34.203Z,3.00
2022-09-29T13:57:03.576Z,3.90
2022-09-29T13:59:30.742Z,4.00
2022-09-29T14:01:58.855Z,4.90
2022-09-29T14:04:44.235Z,2.50
2022-09-29T14:07:14.772Z,2.20
2022-09-29T14:09:47.860Z,4.10
2022-09-29T14:12:22.410Z,4.50
2022-09-29T14:14:55.725Z,3.70
2022-09-29T14:17:44.201Z,2.90
2022-09-29T14:20:30.566Z,4.40
2022-09-29T14:23:03.083Z,2.10
2022-09-29T14:25:50.180Z,4.50
2022-09-29T14:28:22.980Z,5.80
2022-09-29T14:30:55.164Z,3.90
2022-09-29T14:33:29.426Z,5.10
2022-09-29T14:36:00.337Z,4.90
2022-09-29T14:38:39.007Z,3.20
2022-09-29T14:41:07.666Z,7.50
2022-09-29T14:43:38.093Z,4.40
2022-09-29T14:46:39.938Z,3.10
2022-09-29T14:49:40.043Z,4.60
2022-09-29T14:52:27.010Z,4.20
2022-09-29T14:54:56.692Z,2.50
2022-09-29T14:57:24.201Z,3.90
2022-09-29T15:00:04.825Z,3.20
2022-09-29T15:02:35.728Z,2.90
2022-09-29T15:05:13.617Z,2.30
2022-09-29T15:07:42.548Z,5.40
2022-09-29T15:10:23.395Z,3.20
2022-09-29T15:12:51.397Z,2.80
2022-09-29T15:15:35.475Z,2.80
2022-09-29T15:18:27.148Z,2.20
2022-09-29T15:21:03.836Z,4.10
2022-09-29T15:23:56.217Z,3.50
2022-09-29T15:26:33.838Z,3.70
2022-09-29T15:29:01.365Z,6.20
2022-09-29T15:31:34.523Z,6.70
2022-09-29T15:34:04.759Z,4.00
2022-09-29T15:36:37.423Z,4.60
2022-09-29T15:39:14.467Z,10.40
2022-09-29T15:41:41.659Z,4.30
2022-09-29T15:44:21.062Z,5.00
2022-09-29T15:46:51.690Z,5.10
2022-09-29T15:49:21.411Z,7.30
2022-09-29T15:52:05.891Z,8.90
2022-09-29T15:54:40.487Z,4.30
2022-09-29T15:57:41.242Z,9.60
2022-09-29T16:00:28.284Z,5.30
2022-09-29T16:03:10.539Z,4.80
2022-09-29T16:05:45.245Z,5.90
2022-09-29T16:08:13.083Z,6.90
2022-09-29T16:10:48.639Z,6.90
2022-09-29T16:13:21.573Z,8.80
2022-09-29T16:15:50.420Z,8.20
2022-09-29T16:18:22.009Z,7.40
2022-09-29T16:20:50.821Z,7.90
2022-09-29T16:23:37.090Z,8.90
2022-09-29T16:26:07.845Z,8.30
2022-09-29T16:28:37.295Z,8.40
2022-09-29T16:31:08.329Z,8.60
2022-09-29T16:33:36.653Z,8.00
2022-09-29T16:36:10.842Z,12.50
2022-09-29T16:38:41.535Z,17.70
2022-09-29T16:41:19.516Z,18.90
2022-09-29T16:43:47.845Z,18.30
2022-09-29T16:46:20.807Z,17.80
2022-09-29T16:48:49.674Z,19.60
2022-09-29T16:54:15.047Z,16.60
2022-09-29T16:56:41.852Z,15.10
2022-09-29T16:59:16.438Z,15.80
2022-09-29T17:01:46.445Z,16.70
2022-09-29T17:04:13.565Z,13.80
2022-09-29T17:06:47.356Z,16.30
2022-09-29T17:09:20.187Z,25.40
2022-09-29T17:11:48.762Z,26.50
2022-09-29T17:14:18.582Z,15.80
2022-09-29T17:16:45.892Z,19.60
2022-09-29T17:19:12.853Z,22.10
2022-09-29T17:21:40.029Z,21.20
2022-09-29T17:24:06.854Z,22.90
2022-09-29T17:26:55.180Z,18.50
2022-09-29T17:29:22.247Z,20.80
2022-09-29T17:31:49.406Z,21.00
2022-09-29T17:34:17.663Z,17.90
2022-09-29T17:36:45.146Z,21.70
2022-09-29T17:39:11.966Z,22.60
2022-09-29T17:41:45.110Z,25.70
2022-09-29T17:44:13.259Z,21.00
2022-09-29T17:46:40.080Z,22.00
2022-09-29T17:49:13.009Z,22.60
2022-09-29T17:51:40.064Z,18.50
2022-09-29T17:54:07.276Z,15.10
2022-09-29T17:56:40.240Z,17.80
2022-09-29T17:59:17.052Z,18.30
2022-09-29T18:04:18.572Z,20.00
2022-09-29T18:06:45.536Z,19.10
2022-09-29T18:09:15.791Z,22.90
2022-09-29T18:11:43.680Z,20.60
2022-09-29T18:14:10.654Z,19.10
2022-09-29T18:16:37.767Z,18.40
2022-09-29T18:19:05.716Z,16.60
2022-09-29T18:21:33.850Z,20.90
2022-09-29T18:24:01.091Z,17.90
2022-09-29T18:26:28.018Z,14.90
2022-09-29T18:28:55.028Z,19.30
2022-09-29T18:31:27.829Z,25.90
2022-09-29T18:33:55.410Z,25.60
2022-09-29T18:36:22.274Z,23.30
2022-09-29T18:38:49.162Z,17.60
2022-09-29T18:41:20.366Z,17.20
2022-09-29T18:43:48.400Z,18.10
2022-09-29T18:46:15.889Z,19.60
2022-09-29T18:48:42.753Z,17.10
2022-09-29T18:51:13.699Z,17.60
2022-09-29T18:53:42.173Z,21.90
2022-09-29T18:56:17.556Z,34.50
2022-09-29T18:58:44.638Z,27.80
2022-09-29T19:01:15.344Z,31.60
2022-09-29T19:03:43.277Z,25.60
2022-09-29T19:06:18.579Z,28.60
2022-09-29T19:08:49.245Z,24.00
2022-09-29T19:11:18.552Z,26.80
2022-09-29T19:13:45.837Z,24.80
2022-09-29T19:16:13.456Z,24.80
2022-09-29T19:18:40.425Z,26.60
2022-09-29T19:21:12.206Z,18.20
2022-09-29T19:23:42.734Z,22.90
2022-09-29T19:26:14.214Z,21.40
2022-09-29T19:28:41.291Z,22.60
2022-09-29T19:31:13.371Z,27.00
2022-09-29T19:33:42.010Z,24.00
2022-09-29T19:36:13.209Z,23.30
2022-09-29T19:38:40.796Z,23.30
2022-09-29T19:41:19.158Z,22.50
2022-09-29T19:43:46.424Z,20.80
2022-09-29T19:46:14.913Z,20.50
2022-09-29T19:48:43.501Z,25.50
2022-09-29T19:51:31.095Z,27.50
2022-09-29T19:54:13.950Z,27.60
2022-09-29T19:56:51.313Z,25.90
2022-09-29T19:59:21.218Z,24.50
2022-09-29T20:01:50.391Z,25.60
2022-09-29T20:04:20.258Z,26.50
2022-09-29T20:06:47.139Z,20.10
2022-09-29T20:09:14.346Z,19.30
2022-09-29T20:11:41.679Z,19.50
2022-09-29T20:14:11.532Z,27.80
2022-09-29T20:16:41.631Z,29.70
2022-09-29T20:19:11.586Z,26.20
2022-09-29T20:21:40.635Z,24.40
2022-09-29T20:24:07.672Z,22.80
2022-09-29T20:26:34.484Z,25.10
2022-09-29T20:29:02.364Z,23.50
2022-09-29T20:31:31.817Z,26.40
2022-09-29T20:33:59.336Z,22.60
2022-09-29T20:36:26.111Z,28.30
2022-09-29T20:38:53.019Z,31.80
2022-09-29T20:41:19.753Z,28.30
2022-09-29T20:43:49.076Z,26.80
2022-09-29T20:46:16.065Z,21.00
2022-09-29T20:48:44.412Z,22.10
2022-09-29T20:51:15.345Z,26.90
2022-09-29T20:53:44.700Z,22.00
2022-09-29T20:56:16.498Z,21.60
2022-09-29T20:58:45.377Z,24.30
2022-09-29T21:01:18.118Z,24.50
2022-09-29T21:03:58.229Z,25.40
2022-09-29T21:06:28.598Z,24.60
2022-09-29T21:08:57.956Z,22.30
2022-09-29T21:11:25.327Z,20.70
2022-09-29T21:13:57.039Z,25.90
2022-09-29T21:16:25.006Z,25.80
2022-09-29T21:18:53.521Z,24.40
2022-09-29T21:21:20.624Z,29.10
2022-09-29T21:23:47.767Z,24.90
2022-09-29T21:26:18.202Z,20.50
2022-09-29T21:28:55.707Z,19.70
2022-09-29T21:31:25.813Z,21.20
2022-09-29T21:33:55.422Z,20.40
2022-09-29T21:36:24.626Z,24.30
2022-09-29T21:38:51.965Z,25.20
2022-09-29T21:41:22.692Z,24.30
2022-09-29T21:43:52.880Z,24.60
2022-09-29T21:46:22.478Z,27.90
2022-09-29T21:48:52.303Z,31.90
2022-09-29T21:51:24.327Z,28.30
2022-09-29T21:53:52.720Z,25.30
2022-09-29T21:56:23.616Z,25.70
2022-09-29T21:58:53.616Z,30.40
2022-09-29T22:01:21.009Z,25.20
2022-09-29T22:03:49.369Z,26.20
2022-09-29T22:06:19.295Z,34.60
2022-09-29T22:08:47.674Z,25.70
2022-09-29T22:11:16.598Z,23.30
2022-09-29T22:13:43.362Z,29.20
2022-09-29T22:16:13.397Z,27.00
2022-09-29T22:18:42.245Z,24.60
2022-09-29T22:21:12.328Z,27.60
2022-09-29T22:23:39.123Z,27.70
2022-09-29T22:26:11.247Z,23.90
2022-09-29T22:28:38.802Z,23.50
2022-09-29T22:31:09.702Z,23.80
2022-09-29T22:33:38.502Z,20.70
2022-09-29T22:36:05.906Z,24.00
2022-09-29T22:38:36.149Z,27.80
2022-09-29T22:41:12.643Z,27.70
2022-09-29T22:43:40.324Z,28.00
2022-09-29T22:46:09.261Z,26.70
2022-09-29T22:48:36.667Z,24.60
2022-09-29T22:51:04.662Z,25.00
2022-09-29T22:53:32.726Z,23.80
2022-09-29T22:56:01.137Z,22.80
2022-09-29T22:58:28.181Z,26.80
2022-09-29T23:01:05.444Z,28.60
2022-09-29T23:03:33.329Z,27.50
2022-09-29T23:06:00.971Z,25.60
2022-09-29T23:08:28.837Z,26.20
2022-09-29T23:10:56.106Z,29.20
2022-09-29T23:13:23.624Z,27.20
2022-09-29T23:15:50.621Z,29.80
2022-09-29T23:18:19.491Z,27.40
2022-09-29T23:20:46.336Z,27.50
2022-09-29T23:23:13.083Z,25.80
2022-09-29T23:25:39.936Z,26.70
2022-09-29T23:28:06.925Z,33.90
2022-09-29T23:30:36.122Z,29.80
2022-09-29T23:33:03.011Z,29.50
2022-09-29T23:35:29.767Z,29.00
2022-09-29T23:38:12.402Z,29.90
2022-09-29T23:40:39.302Z,26.70
2022-09-29T23:43:07.105Z,32.00
2022-09-29T23:45:34.032Z,34.30
2022-09-29T23:48:00.943Z,26.30
2022-09-29T23:50:32.093Z,26.00
2022-09-29T23:53:00.286Z,25.10
2022-09-29T23:55:27.437Z,28.20
2022-09-29T23:57:54.956Z,24.50
